Terminal Aerodrome Forecast
Issued by NWS

Current Version | Previous Version | Graphics & Text | Print | Product List | Glossary On
Versions: 1 2 3 4 5 6 7 8 9 10 11 12 13 14 15 16 17 18 19 20 21 22 23 24 25 26 27 28 29 30
000
FTUS41 KRLX 210200 AAB
TAFCKB
TAF AMD
KCKB 210224Z 2102/2124 00000KT P6SM BKN050
      TEMPO 2102/2103 00000KT 5SM -SHRA BR BKN070
     FM210900 00000KT 1 1/2SM BR BKN008
     FM211300 00000KT 2SM BR SCT008 BKN025
     FM211500 VRB03KT 4SM SHRA BR VCTS BKN040CB
     FM211700 23004KT P6SM VCTS BKN025CB
     FM211800 23005KT P6SM SHRA VCTS BKN015CB
     FM212000 24005KT P6SM TSRA BKN025CB=

USA.gov is the U.S. government's official web portal to all federal, state and local government web resources and services.